Time;durP1;ratioP1;P1;durP2;ratioP2;P2;SDS_P1;SDS_P2;PMS_P1;PMS_P2;Temp;Humidity;BMP_temperature;BMP_pressure;BME280_temperature;BME280_humidity;BME280_pressure;Samples;Min_cycle;Max_cycle;Signal;HPM_P1;HPM_P2
2022/04/01 00:01:58;;;;;;;;;0.75;0.75;;;;;6.16;100.00;100217.69;6361088;22;45312;-92
2022/04/01 00:04:23;;;;;;;;;2.00;1.00;;;;;6.22;100.00;100220.63;6334786;22;45469;-93
2022/04/01 00:06:48;;;;;;;;;1.50;0.00;;;;;6.29;100.00;100227.06;6360407;22;45411;-92
2022/04/01 00:09:14;;;;;;;;;0.75;0.00;;;;;6.33;100.00;100217.72;6360873;22;48011;-92
2022/04/01 00:11:39;;;;;;;;;1.00;0.00;;;;;6.34;100.00;100211.72;6361412;22;45321;-93
2022/04/01 00:14:05;;;;;;;;;2.75;0.00;;;;;6.21;100.00;100197.13;6336873;22;45619;-92
2022/04/01 00:16:31;;;;;;;;;0.50;0.50;;;;;6.13;100.00;100189.75;6361880;22;45721;-93
2022/04/01 00:18:56;;;;;;;;;1.00;1.00;;;;;6.14;100.00;100206.28;6334448;22;47026;-93
2022/04/01 00:21:21;;;;;;;;;3.00;0.50;;;;;6.06;100.00;100208.44;6360130;22;45412;-93
2022/04/01 00:23:47;;;;;;;;;0.00;0.00;;;;;6.01;100.00;100202.06;6361372;22;45425;-95
2022/04/01 00:26:12;;;;;;;;;1.00;1.00;;;;;5.94;100.00;100198.25;6360421;22;45526;-93
2022/04/01 00:28:38;;;;;;;;;0.50;0.50;;;;;5.85;100.00;100190.81;6361192;22;47945;-93
2022/04/01 00:31:03;;;;;;;;;1.00;0.25;;;;;5.82;100.00;100188.06;6361190;22;45629;-93
2022/04/01 00:33:29;;;;;;;;;1.25;0.75;;;;;5.96;100.00;100213.94;6361408;22;45665;-94
2022/04/01 00:35:54;;;;;;;;;2.00;1.00;;;;;5.95;100.00;100210.47;6334446;22;45401;-93
2022/04/01 00:38:20;;;;;;;;;0.00;0.00;;;;;5.92;100.00;100203.38;6361077;22;47023;-93
2022/04/01 00:40:45;;;;;;;;;0.00;0.00;;;;;5.90;100.00;100207.59;6361106;22;45567;-93
2022/04/01 00:43:11;;;;;;;;;0.00;0.00;;;;;5.80;100.00;100198.38;6361093;22;45381;-93
2022/04/01 00:45:36;;;;;;;;;0.50;0.00;;;;;5.75;100.00;100189.41;6334470;22;45448;-92
2022/04/01 00:48:02;;;;;;;;;0.75;0.00;;;;;5.76;100.00;100191.22;6334632;22;47308;-93
2022/04/01 00:50:31;;;;;;;;;0.00;0.00;;;;;5.76;100.00;100182.50;6333034;22;45694;-93
2022/04/01 00:52:57;;;;;;;;;4.75;0.00;;;;;5.89;100.00;100200.59;6360864;22;45403;-92
2022/04/01 00:55:23;;;;;;;;;0.50;0.00;;;;;5.91;100.00;100187.66;6360458;22;45450;-92
2022/04/01 00:57:48;;;;;;;;;2.50;0.00;;;;;5.95;100.00;100174.00;6334839;22;47985;-94
2022/04/01 01:00:14;;;;;;;;;1.75;0.00;;;;;6.04;100.00;100174.50;6359663;22;45354;-92
2022/04/01 01:02:39;;;;;;;;;0.00;0.00;;;;;6.03;100.00;100169.22;6333418;22;45414;-92
2022/04/01 01:05:05;;;;;;;;;0.25;0.25;;;;;6.01;100.00;100163.91;6360126;22;45316;-92
2022/04/01 01:07:30;;;;;;;;;0.00;0.00;;;;;6.18;100.00;100176.09;6360520;22;47015;-92
2022/04/01 01:09:57;;;;;;;;;0.00;0.00;;;;;6.14;100.00;100159.38;6359925;22;45941;-93
2022/04/01 01:12:23;;;;;;;;;0.00;0.00;;;;;6.17;100.00;100156.94;6361561;22;45357;-93
2022/04/01 01:14:49;;;;;;;;;0.00;0.00;;;;;6.12;100.00;100151.50;6360889;22;45343;-92
2022/04/01 01:17:14;;;;;;;;;0.00;0.00;;;;;6.14;100.00;100147.25;6334040;22;47084;-93
2022/04/01 01:19:41;;;;;;;;;0.50;0.50;;;;;6.31;100.00;100149.88;6360556;22;45679;-94
2022/04/01 01:22:08;;;;;;;;;0.50;0.00;;;;;6.26;100.00;100138.31;6333745;22;45509;-94
2022/04/01 01:24:39;;;;;;;;;0.00;0.00;;;;;6.34;100.00;100147.41;6360989;22;45566;-93
2022/04/01 01:27:07;;;;;;;;;0.00;0.00;;;;;6.29;100.00;100146.28;6360667;22;47899;-93
2022/04/01 01:29:34;;;;;;;;;0.00;0.00;;;;;6.32;100.00;100137.72;6334748;22;45757;-93
2022/04/01 01:32:04;;;;;;;;;0.75;0.00;;;;;6.29;100.00;100127.16;6333910;22;45655;-93
2022/04/01 01:34:32;;;;;;;;;0.00;0.00;;;;;6.23;100.00;100123.41;6360629;22;45755;-94
2022/04/01 01:36:58;;;;;;;;;0.00;0.00;;;;;6.23;100.00;100122.50;6360370;22;48039;-93
2022/04/01 01:39:24;;;;;;;;;0.00;0.00;;;;;6.25;100.00;100115.66;6360449;22;45241;-93
2022/04/01 01:41:53;;;;;;;;;0.00;0.00;;;;;6.22;100.00;100108.56;6360550;22;45624;-93
2022/04/01 01:44:20;;;;;;;;;0.00;0.00;;;;;6.22;100.00;100092.94;6360863;22;45597;-94
2022/04/01 01:46:45;;;;;;;;;1.75;0.00;;;;;6.29;100.00;100099.34;6336101;22;45624;-93
2022/04/01 01:49:11;;;;;;;;;0.00;0.00;;;;;6.36;100.00;100111.00;6359859;22;45525;-92
2022/04/01 01:57:05;;;;;;;;;2.00;0.75;;;;;6.29;100.00;100085.44;6335663;22;45425;-93
2022/04/01 01:59:31;;;;;;;;;0.00;0.00;;;;;6.28;100.00;100081.03;6333484;22;45843;-92
2022/04/01 02:01:58;;;;;;;;;0.00;0.00;;;;;6.16;100.00;100058.72;6360163;22;45871;-92
2022/04/01 02:04:23;;;;;;;;;0.00;0.00;;;;;6.19;100.00;100069.31;6333595;22;45467;-92
2022/04/01 02:06:49;;;;;;;;;1.00;1.00;;;;;6.06;100.00;100052.09;6359513;22;50218;-92
2022/04/01 02:09:16;;;;;;;;;0.00;0.00;;;;;6.12;100.00;100054.16;6359964;22;45307;-92
2022/04/01 02:11:42;;;;;;;;;1.00;1.00;;;;;6.17;100.00;100072.66;6359143;22;45379;-92
2022/04/01 02:14:07;;;;;;;;;0.00;0.00;;;;;6.13;100.00;100056.84;6333264;22;45271;-93
2022/04/01 02:16:33;;;;;;;;;1.25;0.00;;;;;6.11;100.00;100053.28;6359352;22;47709;-91
2022/04/01 02:18:59;;;;;;;;;2.00;1.00;;;;;6.17;100.00;100060.53;6333576;22;45277;-92
2022/04/01 02:21:24;;;;;;;;;1.25;0.00;;;;;6.02;100.00;100031.91;6359383;22;45250;-92
2022/04/01 02:23:51;;;;;;;;;1.00;0.00;;;;;6.08;100.00;100031.38;6333555;22;45588;-93
2022/04/01 02:26:17;;;;;;;;;1.00;1.00;;;;;6.06;100.00;100036.47;6359423;22;47428;-91
2022/04/01 02:28:43;;;;;;;;;0.00;0.00;;;;;6.02;100.00;100030.22;6332830;22;45437;-92
2022/04/01 02:31:11;;;;;;;;;0.00;0.00;;;;;6.09;100.00;100034.06;6359132;22;45482;-92
2022/04/01 02:33:36;;;;;;;;;0.50;0.50;;;;;6.03;100.00;100025.91;6359699;22;45412;-91
2022/04/01 02:36:04;;;;;;;;;2.00;1.00;;;;;6.06;100.00;100025.13;6359034;22;46977;-93
2022/04/01 02:38:30;;;;;;;;;0.25;0.25;;;;;5.90;100.00;100009.59;6359668;22;45393;-92
2022/04/01 02:40:57;;;;;;;;;2.00;1.00;;;;;6.06;100.00;100033.84;6359420;22;45417;-92
2022/04/01 02:43:23;;;;;;;;;1.00;0.00;;;;;6.05;100.00;100032.09;6360300;22;45407;-92
2022/04/01 02:45:50;;;;;;;;;0.50;0.00;;;;;6.01;100.00;100019.69;6331891;22;47772;-93
2022/04/01 02:48:17;;;;;;;;;1.50;0.50;;;;;5.92;100.00;100005.41;6359945;22;45984;-92
2022/04/01 02:50:43;;;;;;;;;0.00;0.00;;;;;5.90;100.00;100009.59;6332721;22;45217;-92
2022/04/01 02:53:09;;;;;;;;;0.75;0.00;;;;;5.85;100.00;99995.44;6358397;22;45647;-92
2022/04/01 02:55:34;;;;;;;;;0.75;0.00;;;;;5.89;100.00;99997.41;6358859;22;46679;-91
2022/04/01 02:58:00;;;;;;;;;1.50;0.25;;;;;5.88;100.00;99989.50;6335027;22;45429;-91
2022/04/01 03:00:26;;;;;;;;;2.00;0.75;;;;;5.85;100.00;99991.97;6359478;22;45400;-92
2022/04/01 03:02:51;;;;;;;;;1.00;0.00;;;;;5.76;100.00;99916.84;6333488;22;45458;-92
2022/04/01 03:05:17;;;;;;;;;1.00;1.00;;;;;5.64;100.00;99899.78;6358572;22;47091;-92
2022/04/01 03:07:44;;;;;;;;;0.00;0.00;;;;;5.76;100.00;99959.41;6332936;22;45553;-92
2022/04/01 03:10:10;;;;;;;;;0.00;0.00;;;;;5.67;100.00;99956.34;6332279;22;45454;-91
2022/04/01 03:12:35;;;;;;;;;0.00;0.00;;;;;5.69;100.00;99958.22;6359732;22;45298;-91
2022/04/01 03:15:02;;;;;;;;;0.50;0.50;;;;;5.74;100.00;99965.34;6332416;22;47061;-92
2022/04/01 03:17:28;;;;;;;;;0.25;0.00;;;;;5.66;100.00;99952.84;6359654;22;45386;-92
2022/04/01 03:19:53;;;;;;;;;0.25;0.25;;;;;5.69;100.00;99960.81;6359541;22;45276;-92
2022/04/01 03:22:20;;;;;;;;;0.00;0.00;;;;;5.63;100.00;99951.75;6331875;22;45232;-93
2022/04/01 03:24:47;;;;;;;;;0.00;0.00;;;;;5.53;100.00;99948.69;6333821;22;47036;-93
2022/04/01 03:27:14;;;;;;;;;0.75;0.75;;;;;5.48;100.00;99930.22;6360080;22;45262;-92
2022/04/01 03:29:39;;;;;;;;;0.00;0.00;;;;;5.48;100.00;99942.34;6360159;22;45338;-92
2022/04/01 03:32:05;;;;;;;;;0.00;0.00;;;;;5.50;100.00;99934.59;6334630;22;45328;-93
2022/04/01 03:34:32;;;;;;;;;0.50;0.00;;;;;5.50;100.00;99934.59;6360323;22;46947;-92
2022/04/01 03:36:57;;;;;;;;;0.00;0.00;;;;;5.47;100.00;99923.22;6360995;22;45673;-92
2022/04/01 03:39:25;;;;;;;;;1.50;0.00;;;;;5.45;100.00;99924.84;6334330;22;45336;-92
2022/04/01 03:41:51;;;;;;;;;0.00;0.00;;;;;5.40;100.00;99920.22;6361298;22;45554;-92
2022/04/01 03:44:17;;;;;;;;;0.00;0.00;;;;;5.41;100.00;99922.88;6332609;22;48053;-92
2022/04/01 03:46:50;;;;;;;;;0.25;0.25;;;;;5.39;100.00;99915.81;6360438;22;45510;-92
2022/04/01 03:49:23;;;;;;;;;0.00;0.00;;;;;5.47;100.00;99924.91;6360862;22;45385;-92
2022/04/01 03:51:50;;;;;;;;;0.25;0.25;;;;;5.38;100.00;99919.25;6360451;22;45538;-92
2022/04/01 03:54:17;;;;;;;;;1.75;0.75;;;;;5.40;100.00;99917.59;6360857;22;48114;-92
2022/04/01 03:56:48;;;;;;;;;0.50;0.50;;;;;5.38;100.00;99903.63;6360179;22;45352;-92
2022/04/01 03:59:17;;;;;;;;;0.00;0.00;;;;;5.43;100.00;99907.38;6336361;22;45195;-92
2022/04/01 04:01:42;;;;;;;;;1.00;1.00;;;;;5.36;100.00;99917.44;6333960;22;45480;-92
2022/04/01 04:04:09;;;;;;;;;0.00;0.00;;;;;5.39;100.00;99911.50;6361278;22;46803;-92
2022/04/01 04:06:35;;;;;;;;;0.00;0.00;;;;;5.35;100.00;99918.28;6335956;22;45298;-91
2022/04/01 04:09:03;;;;;;;;;0.00;0.00;;;;;5.30;100.00;99891.09;6334927;22;45285;-92
2022/04/01 04:11:31;;;;;;;;;2.00;1.00;;;;;5.44;100.00;99916.94;6334772;22;45350;-92
2022/04/01 04:13:58;;;;;;;;;0.00;0.00;;;;;5.36;100.00;99901.81;6360942;22;48009;-92
2022/04/01 04:16:29;;;;;;;;;2.00;0.00;;;;;5.50;100.00;99917.28;6360670;22;45723;-92
2022/04/01 04:19:18;;;;;;;;;0.50;0.50;;;;;5.51;100.00;99895.66;6361256;22;45469;-92
2022/04/01 04:22:11;;;;;;;;;0.00;0.00;;;;;5.61;100.00;99906.53;6269844;22;45354;-92
2022/04/01 04:24:49;;;;;;;;;1.50;0.75;;;;;5.58;100.00;99902.06;6270911;22;45372;-92
2022/04/01 04:27:18;;;;;;;;;0.00;0.00;;;;;5.64;100.00;99920.63;6270859;22;45266;-92
2022/04/01 04:29:49;;;;;;;;;0.00;0.00;;;;;5.63;100.00;99918.81;6271273;22;45316;-93
2022/04/01 04:32:32;;;;;;;;;0.25;0.00;;;;;5.65;100.00;99911.97;6269980;22;45576;-92
2022/04/01 04:35:04;;;;;;;;;1.00;1.00;;;;;5.66;100.00;99910.28;6270314;22;47303;-93
2022/04/01 04:37:32;;;;;;;;;0.00;0.00;;;;;5.67;100.00;99912.06;6271434;22;45937;-93
2022/04/01 04:39:59;;;;;;;;;0.50;0.50;;;;;5.72;100.00;99930.53;6271251;22;45300;-92
2022/04/01 04:42:26;;;;;;;;;1.00;1.00;;;;;5.72;100.00;99926.19;6270498;22;45392;-93
2022/04/01 04:44:53;;;;;;;;;1.75;0.00;;;;;5.73;100.00;99925.38;6245386;22;48251;-93
2022/04/01 04:47:28;;;;;;;;;0.00;0.00;;;;;5.80;100.00;99932.69;6245016;22;45315;-92
2022/04/01 04:49:56;;;;;;;;;1.00;0.00;;;;;5.77;100.00;99942.94;6271895;22;45294;-92
2022/04/01 04:52:28;;;;;;;;;0.00;0.00;;;;;5.81;100.00;99934.50;6244532;22;45508;-93
2022/04/01 04:54:55;;;;;;;;;0.00;0.00;;;;;5.81;100.00;99939.72;6272068;22;46014;-93
2022/04/01 04:57:21;;;;;;;;;1.25;0.50;;;;;5.79;100.00;99941.34;6271460;22;45467;-93
2022/04/01 04:59:48;;;;;;;;;0.50;0.50;;;;;5.83;100.00;99947.59;6354281;22;45373;-93
2022/04/01 05:02:54;;;;;;;;;0.00;0.00;;;;;5.92;100.00;99970.63;6335383;22;45308;-92
2022/04/01 05:05:31;;;;;;;;;1.00;1.00;;;;;5.80;100.00;99952.63;6336320;22;45379;-92
2022/04/01 05:08:15;;;;;;;;;0.50;0.50;;;;;5.90;100.00;99969.66;6362849;22;45397;-93
2022/04/01 05:11:25;;;;;;;;;0.25;0.25;;;;;5.90;100.00;99973.13;6361698;22;45395;-92
2022/04/01 05:14:07;;;;;;;;;0.00;0.00;;;;;5.87;100.00;99969.50;6361469;22;45386;-92
2022/04/01 05:16:39;;;;;;;;;2.00;0.00;;;;;5.98;100.00;99986.56;6370604;22;46487;-92
2022/04/01 05:19:12;;;;;;;;;1.50;0.50;;;;;6.00;100.00;99984.06;6378695;22;45397;-92
2022/04/01 05:21:43;;;;;;;;;0.00;0.00;;;;;5.90;100.00;99972.28;6354812;22;44708;-92
2022/04/01 05:24:14;;;;;;;;;0.00;0.00;;;;;5.90;100.00;99978.34;6359560;22;44730;-92
2022/04/01 05:26:52;;;;;;;;;2.00;0.00;;;;;5.96;100.00;99987.28;6385198;22;47369;-92
2022/04/01 05:29:26;;;;;;;;;1.00;1.00;;;;;5.94;100.00;99987.22;6363587;22;44688;-93
2022/04/01 05:32:00;;;;;;;;;0.75;0.00;;;;;5.97;100.00;99990.00;6361599;22;44893;-92
2022/04/01 05:34:36;;;;;;;;;0.00;0.00;;;;;6.04;100.00;99994.72;6362196;22;44751;-94
2022/04/01 05:37:02;;;;;;;;;1.25;1.25;;;;;5.98;100.00;99989.16;6361267;22;45491;-93
2022/04/01 05:39:29;;;;;;;;;3.50;1.00;;;;;5.93;100.00;99980.22;6375294;22;45253;-92
2022/04/01 05:41:56;;;;;;;;;2.00;2.00;;;;;5.93;100.00;99978.50;6372594;22;45228;-93
2022/04/01 05:44:22;;;;;;;;;1.00;1.00;;;;;5.91;100.00;99974.94;6365627;22;45326;-92
2022/04/01 05:46:51;;;;;;;;;0.75;0.75;;;;;5.99;100.00;99996.19;6362967;22;47308;-92
2022/04/01 05:49:18;;;;;;;;;1.00;1.00;;;;;6.01;100.00;99994.53;6363030;22;45341;-92
2022/04/01 05:51:46;;;;;;;;;2.00;1.00;;;;;5.98;100.00;99990.91;6335100;22;45371;-93
2022/04/01 05:54:14;;;;;;;;;4.00;2.00;;;;;5.95;100.00;99995.94;6308413;22;45601;-93
2022/04/01 05:56:44;;;;;;;;;1.00;1.00;;;;;5.98;100.00;99991.78;6360756;22;47164;-93
2022/04/01 05:59:11;;;;;;;;;4.50;2.00;;;;;5.95;100.00;100006.38;6361087;22;46165;-92
2022/04/01 06:01:41;;;;;;;;;1.50;0.00;;;;;6.00;100.00;100013.63;6333650;22;45393;-91
2022/04/01 06:04:39;;;;;;;;;3.50;1.00;;;;;5.95;100.00;100019.41;6334437;22;45607;-93
2022/04/01 06:07:31;;;;;;;;;2.00;1.00;;;;;5.95;100.00;100033.31;6361914;22;47312;-92
2022/04/01 06:10:05;;;;;;;;;1.00;1.00;;;;;5.80;100.00;100021.25;6333793;22;45447;-92
2022/04/01 06:12:51;;;;;;;;;2.00;0.50;;;;;5.84;100.00;100032.75;6334412;22;45206;-92
2022/04/01 06:15:19;;;;;;;;;1.00;1.00;;;;;5.77;100.00;100034.09;6359681;22;45264;-92
2022/04/01 06:18:03;;;;;;;;;3.00;3.00;;;;;5.73;100.00;99946.22;6332945;22;47197;-90
2022/04/01 06:20:33;;;;;;;;;1.50;1.50;;;;;9.97;100.00;98693.00;6335799;22;45193;-92
2022/04/01 06:23:35;;;;;;;;;1.75;1.75;;;;;18.03;100.00;98373.19;6359448;22;45359;-85
2022/04/01 06:26:01;;;;;;;;;2.00;2.00;;;;;7.26;100.00;98581.56;6319983;22;45428;-88
2022/04/01 06:28:38;;;;;;;;;3.00;3.00;;;;;5.66;100.00;98733.50;6331337;22;45406;-89
2022/04/01 06:31:06;;;;;;;;;5.00;3.00;;;;;5.07;100.00;98732.41;6354330;22;45533;-88
2022/04/01 06:33:55;;;;;;;;;2.50;2.50;;;;;5.10;100.00;98761.13;6330514;22;45258;-89
2022/04/01 06:36:44;;;;;;;;;3.00;3.00;;;;;5.00;100.00;98794.59;6357679;22;45279;-91
2022/04/01 06:39:20;;;;;;;;;1.75;1.25;;;;;4.88;100.00;98844.44;6332922;22;45403;-89
2022/04/01 06:41:47;;;;;;;;;2.00;2.00;;;;;4.76;100.00;98976.56;6329987;22;45816;-87
2022/04/01 06:44:13;;;;;;;;;3.00;3.00;;;;;4.68;100.00;99108.81;6334486;22;45473;-90
2022/04/01 06:46:38;;;;;;;;;2.50;2.00;;;;;5.14;100.00;99215.59;6333408;22;45363;-88
2022/04/01 06:49:08;;;;;;;;;4.00;4.00;;;;;4.66;100.00;99280.31;6332966;22;45370;-90
2022/04/01 06:51:38;;;;;;;;;1.75;1.75;;;;;4.42;100.00;99345.00;6329994;22;45291;-89
2022/04/01 06:54:05;;;;;;;;;2.00;2.00;;;;;4.33;100.00;99355.88;6329516;22;45304;-89
2022/04/01 06:56:31;;;;;;;;;2.00;1.00;;;;;4.23;100.00;99305.16;6330315;22;45439;-87
2022/04/01 06:58:56;;;;;;;;;3.50;2.50;;;;;4.27;100.00;99003.19;6327787;22;46189;-88
2022/04/01 07:01:22;;;;;;;;;4.00;3.00;;;;;4.37;100.00;99173.31;6330853;22;45273;-89
2022/04/01 07:03:48;;;;;;;;;5.75;5.75;;;;;4.43;100.00;99258.47;6336332;22;45307;-89
2022/04/01 07:06:15;;;;;;;;;2.75;1.25;;;;;4.64;100.00;99291.44;6333027;22;45620;-89
2022/04/01 07:08:41;;;;;;;;;4.75;3.50;;;;;5.33;100.00;99326.56;6331360;22;47319;-88
2022/04/01 07:11:07;;;;;;;;;8.25;6.50;;;;;4.60;100.00;99383.97;6356665;22;45292;-88
2022/04/01 07:13:33;;;;;;;;;5.00;5.00;;;;;4.55;100.00;99346.47;6336049;22;45237;-88
2022/04/01 07:15:58;;;;;;;;;6.25;4.00;;;;;4.60;100.00;99336.28;6333142;22;45419;-88
2022/04/01 07:18:24;;;;;;;;;5.00;5.00;;;;;4.64;100.00;99351.22;6335830;22;52494;-88
2022/04/01 07:20:51;;;;;;;;;4.00;3.50;;;;;4.63;100.00;99352.94;6335088;22;45655;-88
2022/04/01 07:23:16;;;;;;;;;6.25;4.00;;;;;4.66;100.00;99353.09;6335047;22;45308;-90
2022/04/01 07:25:42;;;;;;;;;4.25;4.25;;;;;4.69;100.00;99340.22;6333002;22;45371;-89
2022/04/01 07:28:09;;;;;;;;;2.50;2.00;;;;;4.75;100.00;99336.13;6334484;22;46889;-89
2022/04/01 07:30:35;;;;;;;;;6.25;6.25;;;;;4.79;100.00;99297.31;6334493;22;45363;-87
2022/04/01 07:33:00;;;;;;;;;8.00;5.50;;;;;4.82;100.00;99301.78;6331892;22;45289;-88
2022/04/01 07:35:27;;;;;;;;;5.75;5.00;;;;;4.86;100.00;99323.63;6330203;22;45270;-88
2022/04/01 07:37:52;;;;;;;;;5.25;4.25;;;;;4.63;100.00;99352.94;6333835;22;45574;-88
2022/04/01 07:40:18;;;;;;;;;4.50;4.50;;;;;4.82;100.00;99358.09;6330538;22;45660;-88
2022/04/01 07:42:44;;;;;;;;;5.25;5.25;;;;;4.50;100.00;99360.97;6336040;22;45286;-90
2022/04/01 07:45:11;;;;;;;;;4.50;4.50;;;;;4.66;100.00;99321.91;6331662;22;45361;-87
2022/04/01 07:47:37;;;;;;;;;7.50;7.50;;;;;4.45;100.00;99338.25;6334845;22;45234;-88
2022/04/01 07:50:04;;;;;;;;;3.50;3.50;;;;;4.73;100.00;99325.66;6358882;22;45370;-89
2022/04/01 07:52:32;;;;;;;;;8.50;4.50;;;;;4.54;100.00;99389.75;6331784;22;45291;-87
2022/04/01 07:54:58;;;;;;;;;6.00;5.00;;;;;4.46;100.00;99367.72;6332105;22;45432;-88
2022/04/01 07:57:23;;;;;;;;;9.00;6.50;;;;;4.51;100.00;99337.63;6333640;22;45436;-88
2022/04/01 07:59:49;;;;;;;;;5.75;5.75;;;;;4.53;100.00;99333.44;6332585;22;45211;-90
2022/04/01 08:02:15;;;;;;;;;5.75;5.75;;;;;4.53;100.00;99388.00;6359727;22;45446;-90
2022/04/01 08:04:41;;;;;;;;;8.00;6.00;;;;;4.55;100.00;99372.47;6332639;22;45384;-89
2022/04/01 08:07:07;;;;;;;;;5.75;5.25;;;;;4.71;100.00;99316.00;6357028;22;46881;-88
2022/04/01 08:09:33;;;;;;;;;5.75;5.75;;;;;5.15;100.00;99352.66;6355758;22;45701;-88
2022/04/01 08:11:59;;;;;;;;;9.00;8.25;;;;;4.89;100.00;99353.25;6332645;22;45604;-89
2022/04/01 08:14:24;;;;;;;;;6.00;5.50;;;;;4.77;100.00;99357.88;6330896;22;45449;-88
2022/04/01 08:16:50;;;;;;;;;6.00;6.00;;;;;4.82;100.00;99382.38;6331565;22;46791;-89
2022/04/01 08:19:15;;;;;;;;;6.25;5.00;;;;;4.85;100.00;99407.63;6331389;22;45983;-89
2022/04/01 08:21:44;;;;;;;;;5.50;5.50;;;;;4.90;100.00;99422.63;6330209;22;45308;-89
2022/04/01 08:24:10;;;;;;;;;6.00;5.50;;;;;4.98;100.00;99385.69;6329163;22;45440;-89
2022/04/01 08:26:35;;;;;;;;;4.50;4.00;;;;;5.02;100.00;99444.84;6333034;22;45586;-90
2022/04/01 08:29:00;;;;;;;;;5.00;5.00;;;;;5.05;100.00;99571.56;6329020;22;45595;-90
2022/04/01 08:31:27;;;;;;;;;5.00;5.00;;;;;5.23;100.00;99618.38;6331785;22;45367;-89
2022/04/01 08:33:54;;;;;;;;;7.75;6.00;;;;;4.96;100.00;99632.69;6334882;22;45338;-88
2022/04/01 08:36:20;;;;;;;;;4.00;4.00;;;;;5.14;100.00;99629.22;6329648;22;47426;-88
2022/04/01 08:38:45;;;;;;;;;5.75;4.75;;;;;5.22;100.00;99668.63;6336252;22;45600;-89
2022/04/01 08:41:17;;;;;;;;;7.25;7.00;;;;;5.31;100.00;99669.06;6358602;22;45307;-88
2022/04/01 08:43:45;;;;;;;;;6.25;5.00;;;;;5.25;100.00;99700.91;6334963;22;45394;-88
2022/04/01 08:46:11;;;;;;;;;7.00;5.00;;;;;5.22;100.00;99718.06;6332025;22;46276;-88
2022/04/01 08:48:37;;;;;;;;;7.00;5.50;;;;;5.25;100.00;99713.91;6359481;22;45601;-89
2022/04/01 08:51:02;;;;;;;;;7.75;6.00;;;;;5.22;100.00;99728.47;6336711;22;45296;-89
2022/04/01 08:53:28;;;;;;;;;7.00;7.00;;;;;5.28;100.00;99743.50;6335655;22;45297;-89
2022/04/01 08:55:56;;;;;;;;;8.50;8.25;;;;;5.42;100.00;99763.31;6333972;22;45531;-89
2022/04/01 08:58:23;;;;;;;;;5.00;4.75;;;;;5.27;100.00;99783.34;6334060;22;45776;-90
2022/04/01 09:00:52;;;;;;;;;9.00;5.50;;;;;5.31;100.00;99783.56;6333468;22;44758;-90
2022/04/01 09:03:21;;;;;;;;;5.25;5.25;;;;;5.30;100.00;99812.13;6358836;22;45292;-89
2022/04/01 09:05:52;;;;;;;;;8.00;8.00;;;;;5.33;100.00;99809.69;6332748;22;45430;-90
2022/04/01 09:08:23;;;;;;;;;7.50;6.50;;;;;5.28;100.00;99827.69;6359309;22;45298;-88
2022/04/01 09:10:58;;;;;;;;;6.25;5.50;;;;;5.34;100.00;99841.00;6334955;22;45339;-89
2022/04/01 09:13:32;;;;;;;;;11.75;5.75;;;;;5.33;100.00;99844.44;6336606;22;45410;-89
2022/04/01 09:15:59;;;;;;;;;7.25;5.00;;;;;5.45;100.00;99851.97;6359734;22;47482;-88
2022/04/01 09:18:34;;;;;;;;;3.50;3.50;;;;;5.56;100.00;99862.94;6335133;22;45412;-88
2022/04/01 09:20:59;;;;;;;;;5.50;5.00;;;;;5.67;100.00;99866.06;6354346;22;45430;-90
2022/04/01 09:23:24;;;;;;;;;8.50;5.75;;;;;5.79;100.00;99872.72;6335355;22;45244;-87
2022/04/01 09:25:51;;;;;;;;;6.00;5.00;;;;;5.58;100.00;99873.41;6334093;22;45299;-88
2022/04/01 09:28:23;;;;;;;;;8.75;6.00;;;;;5.63;100.00;99881.47;6333979;22;45317;-88
2022/04/01 09:30:59;;;;;;;;;6.75;6.75;;;;;5.56;100.00;99868.16;6358061;22;45407;-87
2022/04/01 09:33:32;;;;;;;;;5.50;4.75;;;;;5.69;100.00;99893.09;6326783;22;45357;-89
2022/04/01 09:36:06;;;;;;;;;7.75;6.50;;;;;5.66;100.00;99892.03;6332413;22;46323;-87
2022/04/01 09:38:31;;;;;;;;;6.00;5.50;;;;;5.75;100.00;99910.72;6335096;22;45357;-86
2022/04/01 09:41:02;;;;;;;;;10.75;8.00;;;;;5.66;100.00;99895.56;6331911;22;45488;-86
2022/04/01 09:43:27;;;;;;;;;6.50;5.75;;;;;5.64;100.00;99914.50;6332803;22;45336;-87
2022/04/01 09:45:53;;;;;;;;;8.75;6.00;;;;;5.56;100.00;99932.34;6330808;22;45725;-87
2022/04/01 09:48:20;;;;;;;;;7.25;6.25;;;;;5.57;100.00;99922.00;6328934;22;45403;-90
2022/04/01 09:50:59;;;;;;;;;6.25;5.75;;;;;5.77;100.00;99927.31;6331035;22;45351;-88
2022/04/01 09:53:25;;;;;;;;;12.00;8.75;;;;;6.10;100.00;99930.72;6328832;22;45418;-86
2022/04/01 09:55:52;;;;;;;;;8.25;6.00;;;;;6.26;100.00;99941.09;6328904;22;45985;-87
2022/04/01 09:58:20;;;;;;;;;8.00;7.25;;;;;6.46;100.00;99950.72;6332339;22;45357;-88
2022/04/01 10:00:45;;;;;;;;;8.00;7.50;;;;;6.59;100.00;99960.06;6331049;22;45319;-88
2022/04/01 10:03:12;;;;;;;;;9.00;7.75;;;;;6.23;100.00;99981.75;6330137;22;45358;-88
2022/04/01 10:05:42;;;;;;;;;9.50;6.25;;;;;5.95;100.00;99969.91;6324247;22;45839;-87
2022/04/01 10:08:10;;;;;;;;;8.25;8.00;;;;;6.01;100.00;99944.13;6330590;22;45279;-87
2022/04/01 10:10:38;;;;;;;;;8.50;8.25;;;;;6.11;100.00;99898.63;6324181;22;45672;-88
2022/04/01 10:13:08;;;;;;;;;9.25;8.50;;;;;6.19;100.00;99897.31;6331685;22;45465;-86
2022/04/01 10:15:36;;;;;;;;;6.75;6.75;;;;;6.19;100.00;99906.81;6331249;22;45348;-86
2022/04/01 10:18:02;;;;;;;;;13.50;11.00;;;;;6.21;100.00;99895.66;6331856;22;45361;-86
2022/04/01 10:20:33;;;;;;;;;9.25;6.00;;;;;6.30;100.00;99882.19;6331264;22;45260;-86
2022/04/01 10:23:04;;;;;;;;;4.25;4.25;;;;;6.38;100.00;99893.00;6332533;22;45662;-86
2022/04/01 10:25:36;;;;;;;;;11.75;8.75;;;;;6.30;100.00;99909.97;6325269;22;45597;-87
2022/04/01 10:28:03;;;;;;;;;7.75;7.75;;;;;6.24;100.00;99929.69;6331405;22;45314;-86
2022/04/01 10:30:34;;;;;;;;;7.00;7.00;;;;;6.12;100.00;99947.34;6355014;22;45376;-90
2022/04/01 10:32:59;;;;;;;;;10.25;9.75;;;;;6.03;100.00;99948.63;6331713;22;45344;-87
2022/04/01 10:35:26;;;;;;;;;12.25;7.50;;;;;5.98;100.00;99938.81;6330676;22;45586;-87
2022/04/01 10:38:15;;;;;;;;;13.00;12.25;;;;;6.03;100.00;99937.31;6331844;22;45680;-87
2022/04/01 10:40:45;;;;;;;;;9.75;8.50;;;;;6.07;100.00;99944.50;6331411;22;45454;-86
2022/04/01 10:43:28;;;;;;;;;13.50;12.75;;;;;5.93;100.00;99948.97;6333671;22;45229;-88
2022/04/01 10:46:04;;;;;;;;;9.50;8.25;;;;;5.84;100.00;99977.16;6332973;22;46269;-86
2022/04/01 10:54:01;;;;;;;;;7.75;7.75;;;;;5.85;100.00;99966.78;6332368;22;45217;-87
2022/04/01 10:56:32;;;;;;;;;17.50;10.25;;;;;5.91;100.00;99997.47;6332764;22;45385;-85
2022/04/01 10:59:14;;;;;;;;;12.75;10.25;;;;;5.95;100.00;100002.06;6330314;22;45616;-86
2022/04/01 11:02:02;;;;;;;;;11.75;10.00;;;;;6.75;100.00;99989.50;6332537;22;45586;-85
2022/04/01 11:04:31;;;;;;;;;9.75;8.25;;;;;5.91;100.00;99998.38;6329109;22;45274;-85
2022/04/01 11:07:06;;;;;;;;;9.50;8.25;;;;;5.91;100.00;100018.31;6330526;22;46539;-84
2022/04/01 11:09:46;;;;;;;;;9.25;9.00;;;;;5.89;100.00;100006.94;6331028;22;45410;-85
2022/04/01 11:12:14;;;;;;;;;15.25;9.75;;;;;5.92;100.00;100025.34;6331029;22;45386;-85
2022/04/01 11:17:55;;;;;;;;;10.75;8.00;;;;;5.78;100.00;100037.63;6331946;22;45832;-85
2022/04/01 11:20:26;;;;;;;;;16.50;11.50;;;;;5.70;100.00;100030.28;6351682;22;45348;-85
2022/04/01 11:22:56;;;;;;;;;9.25;9.25;;;;;5.71;100.00;100036.41;6357230;22;45469;-85
2022/04/01 11:25:21;;;;;;;;;12.75;9.00;;;;;5.67;100.00;100048.34;6330417;22;45356;-85
2022/04/01 11:28:02;;;;;;;;;12.50;10.25;;;;;6.07;100.00;100042.56;6332524;22;45934;-85
2022/04/01 11:30:41;;;;;;;;;7.00;7.00;;;;;5.55;100.00;100038.19;6331581;22;45281;-86
2022/04/01 11:33:12;;;;;;;;;11.25;6.75;;;;;5.53;100.00;100052.81;6330683;22;45541;-86
2022/04/01 11:35:40;;;;;;;;;12.75;9.00;;;;;5.66;100.00;100062.19;6331728;22;45213;-85
2022/04/01 11:38:07;;;;;;;;;14.25;14.25;;;;;5.74;100.00;100062.63;6326949;22;47048;-86
2022/04/01 11:40:36;;;;;;;;;15.50;12.00;;;;;5.74;100.00;100051.28;6331503;22;45487;-85
2022/04/01 11:43:05;;;;;;;;;9.00;8.25;;;;;5.76;100.00;100071.41;6330222;22;45277;-85
2022/04/01 11:45:35;;;;;;;;;13.00;10.50;;;;;5.72;100.00;100081.56;6332672;22;45327;-85
2022/04/01 11:48:22;;;;;;;;;11.25;8.75;;;;;6.50;100.00;100110.81;6330548;22;46288;-85
2022/04/01 11:50:54;;;;;;;;;10.25;9.50;;;;;6.46;100.00;100097.63;6319161;22;45315;-85
2022/04/01 11:53:21;;;;;;;;;11.50;9.00;;;;;6.37;100.00;100085.00;6331967;22;45502;-85